Time;durP1;ratioP1;P1;durP2;ratioP2;P2;SDS_P1;SDS_P2;PMS_P1;PMS_P2;Temp;Humidity;BMP_temperature;BMP_pressure;BME280_temperature;BME280_humidity;BME280_pressure;Samples;Min_cycle;Max_cycle;Signal;HPM_P1;HPM_P2
2024/01/31 00:02:16;;;;;;;3.28;1.25;;;;;;;;;;6246732;22;20431;-89
2024/01/31 00:04:42;;;;;;;4.65;0.93;;;;;;;;;;6247401;22;20447;-89
2024/01/31 00:07:11;;;;;;;5.95;1.27;;;;;;;;;;6271664;22;20027;-88
2024/01/31 00:09:37;;;;;;;4.50;0.85;;;;;;;;;;6274016;22;20007;-89
2024/01/31 00:12:03;;;;;;;3.58;1.00;;;;;;;;;;6250085;22;20022;-89
2024/01/31 00:14:29;;;;;;;8.70;1.55;;;;;;;;;;6272564;22;20093;-88
2024/01/31 00:16:55;;;;;;;3.20;1.20;;;;;;;;;;6249813;22;20023;-89
2024/01/31 00:19:21;;;;;;;3.20;0.90;;;;;;;;;;6292814;22;20030;-90
2024/01/31 00:21:47;;;;;;;0.95;0.85;;;;;;;;;;6269745;22;20027;-89
2024/01/31 00:24:13;;;;;;;3.47;1.08;;;;;;;;;;6265250;22;20015;-89
2024/01/31 00:26:40;;;;;;;3.42;0.70;;;;;;;;;;6293901;22;20019;-89
2024/01/31 00:29:06;;;;;;;2.30;0.82;;;;;;;;;;6242324;22;20019;-89
2024/01/31 00:31:33;;;;;;;3.08;0.77;;;;;;;;;;6242210;22;20026;-89
2024/01/31 00:33:59;;;;;;;1.80;0.70;;;;;;;;;;6269396;22;20011;-89
2024/01/31 00:36:25;;;;;;;1.40;0.80;;;;;;;;;;6267771;22;20106;-88
2024/01/31 00:38:51;;;;;;;2.60;1.00;;;;;;;;;;6292920;22;20072;-89
2024/01/31 00:41:17;;;;;;;2.35;1.00;;;;;;;;;;6265537;22;20051;-89
2024/01/31 00:43:43;;;;;;;3.90;1.08;;;;;;;;;;6243269;22;20059;-88
2024/01/31 00:46:09;;;;;;;2.25;0.82;;;;;;;;;;6243126;22;20462;-89
2024/01/31 00:48:35;;;;;;;2.47;0.80;;;;;;;;;;6265451;22;20018;-89
2024/01/31 00:51:01;;;;;;;1.63;0.73;;;;;;;;;;6268136;22;20015;-89
2024/01/31 00:53:27;;;;;;;4.85;0.90;;;;;;;;;;6261524;22;20474;-89
2024/01/31 00:55:53;;;;;;;5.05;1.45;;;;;;;;;;6266732;22;20530;-88
2024/01/31 00:58:19;;;;;;;3.15;1.00;;;;;;;;;;6238756;22;20022;-88
2024/01/31 01:00:45;;;;;;;4.50;1.23;;;;;;;;;;6241310;22;20463;-89
2024/01/31 01:03:11;;;;;;;3.75;1.05;;;;;;;;;;6266526;22;20023;-89
2024/01/31 01:05:41;;;;;;;5.28;1.00;;;;;;;;;;6243331;22;20454;-89
2024/01/31 01:08:07;;;;;;;4.13;1.00;;;;;;;;;;6292368;22;20026;-89
2024/01/31 01:10:33;;;;;;;1.33;0.82;;;;;;;;;;6266064;22;20061;-90
2024/01/31 01:12:59;;;;;;;4.47;1.00;;;;;;;;;;6293659;22;20011;-89
2024/01/31 01:15:25;;;;;;;7.00;1.45;;;;;;;;;;6265713;22;20019;-89
2024/01/31 01:17:51;;;;;;;4.05;1.08;;;;;;;;;;6267117;22;20019;-88
2024/01/31 01:20:18;;;;;;;3.97;1.30;;;;;;;;;;6266510;22;20020;-88
2024/01/31 01:22:45;;;;;;;5.90;1.00;;;;;;;;;;6267473;22;20099;-88
2024/01/31 01:25:11;;;;;;;5.00;1.27;;;;;;;;;;6269878;22;20023;-89
2024/01/31 01:27:37;;;;;;;2.20;1.00;;;;;;;;;;6266877;22;20071;-89
2024/01/31 01:30:04;;;;;;;4.30;1.10;;;;;;;;;;6270078;22;20022;-89
2024/01/31 01:32:29;;;;;;;7.57;1.83;;;;;;;;;;6266289;22;20007;-89
2024/01/31 01:34:55;;;;;;;5.43;1.40;;;;;;;;;;6271153;22;20443;-89
2024/01/31 01:37:21;;;;;;;3.30;1.35;;;;;;;;;;6266699;22;20034;-89
2024/01/31 01:39:48;;;;;;;5.38;1.30;;;;;;;;;;6293536;22;20123;-89
2024/01/31 01:42:14;;;;;;;4.40;1.42;;;;;;;;;;6266198;22;20072;-90
2024/01/31 01:44:43;;;;;;;3.75;1.77;;;;;;;;;;6268158;22;20011;-89
2024/01/31 01:47:09;;;;;;;5.72;1.33;;;;;;;;;;6269183;22;20094;-89
2024/01/31 01:49:35;;;;;;;5.22;1.48;;;;;;;;;;6291127;22;20051;-89
2024/01/31 01:52:01;;;;;;;2.85;1.13;;;;;;;;;;6241781;22;20042;-89
2024/01/31 01:54:33;;;;;;;6.38;1.88;;;;;;;;;;6263113;22;20427;-88
2024/01/31 01:56:59;;;;;;;3.97;1.30;;;;;;;;;;6294487;22;20015;-89
2024/01/31 01:59:25;;;;;;;4.88;1.50;;;;;;;;;;6290091;22;20443;-89
2024/01/31 02:01:51;;;;;;;4.88;1.30;;;;;;;;;;6267619;22;20060;-88
2024/01/31 02:04:18;;;;;;;4.03;0.98;;;;;;;;;;6265893;22;20073;-89
2024/01/31 02:06:45;;;;;;;2.87;1.00;;;;;;;;;;6265790;22;20431;-89
2024/01/31 02:09:11;;;;;;;2.78;1.00;;;;;;;;;;6241862;22;20273;-89
2024/01/31 02:11:37;;;;;;;2.83;1.00;;;;;;;;;;6265687;22;20050;-89
2024/01/31 02:14:03;;;;;;;3.20;0.80;;;;;;;;;;6293233;22;20019;-90
2024/01/31 02:16:29;;;;;;;4.03;1.05;;;;;;;;;;6266899;22;20335;-89
2024/01/31 02:18:55;;;;;;;2.90;0.90;;;;;;;;;;6295632;22;20098;-90
2024/01/31 02:21:21;;;;;;;2.45;0.77;;;;;;;;;;6242974;22;20423;-89
2024/01/31 02:23:47;;;;;;;2.65;0.73;;;;;;;;;;6270944;22;20050;-89
2024/01/31 02:26:13;;;;;;;2.53;0.68;;;;;;;;;;6295206;22;20099;-89
2024/01/31 02:28:39;;;;;;;2.65;0.82;;;;;;;;;;6270741;22;20025;-89
2024/01/31 02:31:05;;;;;;;5.10;1.10;;;;;;;;;;6298498;22;20497;-89
2024/01/31 02:33:31;;;;;;;2.67;1.13;;;;;;;;;;6245233;22;20018;-89
2024/01/31 02:35:57;;;;;;;5.32;1.05;;;;;;;;;;6300063;22;20072;-90
2024/01/31 02:38:23;;;;;;;4.28;1.10;;;;;;;;;;6272855;22;20018;-90
2024/01/31 02:40:49;;;;;;;2.50;0.90;;;;;;;;;;6270870;22;20069;-90
2024/01/31 02:43:15;;;;;;;5.93;1.85;;;;;;;;;;6296488;22;20011;-89
2024/01/31 02:45:41;;;;;;;6.03;1.20;;;;;;;;;;6300052;22;20025;-88
2024/01/31 02:48:08;;;;;;;3.78;1.20;;;;;;;;;;6247528;22;20014;-89
2024/01/31 02:50:34;;;;;;;6.70;1.30;;;;;;;;;;6273494;22;20208;-89
2024/01/31 02:53:00;;;;;;;5.15;1.08;;;;;;;;;;6328431;22;20015;-89
2024/01/31 02:55:26;;;;;;;4.45;1.00;;;;;;;;;;6271731;22;20474;-89
2024/01/31 02:57:52;;;;;;;5.50;1.30;;;;;;;;;;6274061;22;20339;-88
2024/01/31 03:00:19;;;;;;;4.10;1.05;;;;;;;;;;6271119;22;20023;-89
2024/01/31 03:02:47;;;;;;;3.88;1.52;;;;;;;;;;6301098;22;20019;-89
2024/01/31 03:05:14;;;;;;;2.47;1.15;;;;;;;;;;6270424;22;20339;-89
2024/01/31 03:07:40;;;;;;;3.45;1.23;;;;;;;;;;6299285;22;20015;-89
2024/01/31 03:10:06;;;;;;;3.38;1.13;;;;;;;;;;6273772;22;20011;-89
2024/01/31 03:12:32;;;;;;;3.25;1.10;;;;;;;;;;6246040;22;20019;-88
2024/01/31 03:14:58;;;;;;;4.70;1.35;;;;;;;;;;6249161;22;20011;-89
2024/01/31 03:17:24;;;;;;;3.25;1.00;;;;;;;;;;6272413;22;20423;-90
2024/01/31 03:19:51;;;;;;;3.95;1.15;;;;;;;;;;6273179;22;20465;-88
2024/01/31 03:22:17;;;;;;;2.88;0.82;;;;;;;;;;6297441;22;20080;-89
2024/01/31 03:24:43;;;;;;;3.28;1.05;;;;;;;;;;6273375;22;20018;-89
2024/01/31 03:27:09;;;;;;;3.70;1.00;;;;;;;;;;6300010;22;20019;-89
2024/01/31 03:29:36;;;;;;;5.15;1.10;;;;;;;;;;6271745;22;20076;-88
2024/01/31 03:32:02;;;;;;;3.20;0.95;;;;;;;;;;6299666;22;20053;-90
2024/01/31 03:34:28;;;;;;;4.07;1.20;;;;;;;;;;6271443;22;20011;-89
2024/01/31 03:36:55;;;;;;;3.70;0.85;;;;;;;;;;6300461;22;20045;-88
2024/01/31 03:39:21;;;;;;;4.15;0.95;;;;;;;;;;6271344;22;20023;-88
2024/01/31 03:41:49;;;;;;;3.78;1.20;;;;;;;;;;6299021;22;20323;-88
2024/01/31 03:44:15;;;;;;;1.67;0.82;;;;;;;;;;6246495;22;20490;-89
2024/01/31 03:46:41;;;;;;;1.60;1.00;;;;;;;;;;6273366;22;20301;-88
2024/01/31 03:49:07;;;;;;;5.65;0.95;;;;;;;;;;6299802;22;20106;-88
2024/01/31 03:51:33;;;;;;;3.53;1.10;;;;;;;;;;6245409;22;21028;-89
2024/01/31 03:53:59;;;;;;;2.95;0.95;;;;;;;;;;6299980;22;20013;-88
2024/01/31 03:56:25;;;;;;;4.03;0.93;;;;;;;;;;6271833;22;20756;-88
2024/01/31 03:58:51;;;;;;;3.38;1.45;;;;;;;;;;6298903;22;20014;-89
2024/01/31 04:01:18;;;;;;;3.78;1.08;;;;;;;;;;6270424;22;20098;-89
2024/01/31 04:03:44;;;;;;;2.90;0.85;;;;;;;;;;6248238;22;20018;-88
2024/01/31 04:06:11;;;;;;;3.75;1.15;;;;;;;;;;6299531;22;20347;-88
2024/01/31 04:08:37;;;;;;;6.82;1.67;;;;;;;;;;6273289;22;20015;-87
2024/01/31 04:11:03;;;;;;;3.45;1.10;;;;;;;;;;6247630;22;20014;-88
2024/01/31 04:13:29;;;;;;;1.08;0.82;;;;;;;;;;6270456;22;20015;-87
2024/01/31 04:15:55;;;;;;;4.18;1.00;;;;;;;;;;6248550;22;20025;-89
2024/01/31 04:18:21;;;;;;;3.42;1.02;;;;;;;;;;6269706;22;20758;-88
2024/01/31 04:20:47;;;;;;;4.38;0.90;;;;;;;;;;6267735;22;20049;-88
2024/01/31 04:23:14;;;;;;;2.85;1.23;;;;;;;;;;6266008;22;20031;-88
2024/01/31 04:25:40;;;;;;;4.82;1.63;;;;;;;;;;6292772;22;20047;-88
2024/01/31 04:28:06;;;;;;;2.78;0.70;;;;;;;;;;6292813;22;20315;-88
2024/01/31 04:30:32;;;;;;;3.35;0.70;;;;;;;;;;6290569;22;20026;-89
2024/01/31 04:33:01;;;;;;;2.25;0.80;;;;;;;;;;6267219;22;20054;-89
2024/01/31 04:35:30;;;;;;;2.17;0.80;;;;;;;;;;6264828;22;20022;-89
2024/01/31 04:37:56;;;;;;;0.80;0.70;;;;;;;;;;6265615;22;20023;-88
2024/01/31 04:40:22;;;;;;;0.50;0.50;;;;;;;;;;6287619;22;20028;-88
2024/01/31 04:42:48;;;;;;;3.33;0.80;;;;;;;;;;6266217;22;20094;-88
2024/01/31 04:45:14;;;;;;;1.52;0.70;;;;;;;;;;6289399;22;20026;-88
2024/01/31 04:47:43;;;;;;;1.45;0.70;;;;;;;;;;6268576;22;20011;-89
2024/01/31 04:50:11;;;;;;;3.47;1.10;;;;;;;;;;6267342;22;20012;-88
2024/01/31 04:52:37;;;;;;;1.67;0.95;;;;;;;;;;6289181;22;20072;-88
2024/01/31 04:55:04;;;;;;;4.50;0.90;;;;;;;;;;6244238;22;20011;-88
2024/01/31 04:57:31;;;;;;;2.50;0.85;;;;;;;;;;6267685;22;20015;-88
2024/01/31 04:59:57;;;;;;;2.17;0.85;;;;;;;;;;6295292;22;20019;-88
2024/01/31 05:02:23;;;;;;;2.53;0.63;;;;;;;;;;6236853;22;20019;-89
2024/01/31 05:04:49;;;;;;;1.30;0.60;;;;;;;;;;6268908;22;20015;-88
2024/01/31 05:07:15;;;;;;;2.92;0.70;;;;;;;;;;6238979;22;20015;-88
2024/01/31 05:09:41;;;;;;;3.85;1.02;;;;;;;;;;6267424;22;20019;-88
2024/01/31 05:12:07;;;;;;;1.33;0.75;;;;;;;;;;6268569;22;20049;-88
2024/01/31 05:14:33;;;;;;;2.15;0.73;;;;;;;;;;6266419;22;20414;-89
2024/01/31 05:16:59;;;;;;;2.10;1.25;;;;;;;;;;6267389;22;20021;-88
2024/01/31 05:19:26;;;;;;;2.63;0.82;;;;;;;;;;6270675;22;20086;-88
2024/01/31 05:21:54;;;;;;;2.33;0.60;;;;;;;;;;6296972;22;20023;-89
2024/01/31 05:24:20;;;;;;;2.70;0.95;;;;;;;;;;6269560;22;20022;-88
2024/01/31 05:26:47;;;;;;;1.75;0.70;;;;;;;;;;6299619;22;20086;-88
2024/01/31 05:29:13;;;;;;;1.65;0.82;;;;;;;;;;6248112;22;20335;-89
2024/01/31 05:31:39;;;;;;;2.33;0.90;;;;;;;;;;6274231;22;20015;-89
2024/01/31 05:34:05;;;;;;;2.03;0.70;;;;;;;;;;6249087;22;20421;-89
2024/01/31 05:36:31;;;;;;;4.97;0.95;;;;;;;;;;6272049;22;20064;-88
2024/01/31 05:38:57;;;;;;;2.33;0.63;;;;;;;;;;6298042;22;20019;-88
2024/01/31 05:41:23;;;;;;;2.83;0.80;;;;;;;;;;6295246;22;20056;-88
2024/01/31 05:46:34;;;;;;;2.13;0.90;;;;;;;;;;6291473;22;19915;-87
2024/01/31 05:49:10;;;;;;;2.42;0.90;;;;;;;;;;6259536;22;20037;-88
2024/01/31 05:51:37;;;;;;;2.83;0.95;;;;;;;;;;6254356;22;20007;-89
2024/01/31 05:54:10;;;;;;;3.08;0.80;;;;;;;;;;6230499;22;20097;-88
2024/01/31 05:56:43;;;;;;;2.53;0.90;;;;;;;;;;6260384;22;20344;-88
2024/01/31 05:59:12;;;;;;;0.98;0.95;;;;;;;;;;6257076;22;20016;-88
2024/01/31 06:01:41;;;;;;;2.15;1.05;;;;;;;;;;6282212;22;20019;-89
2024/01/31 06:04:21;;;;;;;1.42;0.80;;;;;;;;;;6276760;22;20090;-89
2024/01/31 06:06:49;;;;;;;1.02;0.80;;;;;;;;;;6254431;22;20015;-89
2024/01/31 06:09:17;;;;;;;5.00;1.30;;;;;;;;;;6255524;22;20023;-88
2024/01/31 06:11:45;;;;;;;3.42;1.05;;;;;;;;;;6283881;22;20050;-88
2024/01/31 06:14:15;;;;;;;2.90;1.00;;;;;;;;;;6281953;22;20070;-88
2024/01/31 06:16:45;;;;;;;4.93;1.08;;;;;;;;;;6257189;22;20594;-88
2024/01/31 06:19:13;;;;;;;5.43;1.30;;;;;;;;;;6285290;22;20023;-89
2024/01/31 06:21:45;;;;;;;2.40;1.05;;;;;;;;;;6260653;22;20313;-89
2024/01/31 06:24:13;;;;;;;3.22;0.90;;;;;;;;;;6284417;22;20070;-89
2024/01/31 06:26:45;;;;;;;2.70;1.20;;;;;;;;;;6260277;22;20050;-89
2024/01/31 06:29:22;;;;;;;2.97;1.15;;;;;;;;;;6310118;22;20011;-89
2024/01/31 06:31:51;;;;;;;3.00;1.60;;;;;;;;;;6285367;22;20324;-88
2024/01/31 06:34:21;;;;;;;3.55;0.80;;;;;;;;;;6258190;22;20098;-88
2024/01/31 06:36:49;;;;;;;2.95;1.02;;;;;;;;;;6260633;22;20018;-88
2024/01/31 06:39:18;;;;;;;3.70;1.10;;;;;;;;;;6256936;22;20062;-89
2024/01/31 06:41:48;;;;;;;1.35;0.90;;;;;;;;;;6259583;22;20019;-89
2024/01/31 06:44:18;;;;;;;3.13;1.10;;;;;;;;;;6279315;22;20015;-89
2024/01/31 06:46:49;;;;;;;5.97;1.08;;;;;;;;;;6302871;22;20389;-89
2024/01/31 06:49:18;;;;;;;2.78;1.10;;;;;;;;;;6257784;22;20015;-89
2024/01/31 06:51:46;;;;;;;2.70;1.17;;;;;;;;;;6309338;22;20021;-89
2024/01/31 06:54:17;;;;;;;3.63;1.00;;;;;;;;;;6261933;22;20011;-89
2024/01/31 06:56:47;;;;;;;3.42;1.10;;;;;;;;;;6288840;22;20015;-89
2024/01/31 06:59:15;;;;;;;3.00;1.27;;;;;;;;;;6285644;22;20015;-89
2024/01/31 07:01:47;;;;;;;4.13;1.30;;;;;;;;;;6287587;22;20405;-89
2024/01/31 07:04:14;;;;;;;3.30;1.38;;;;;;;;;;6286491;22;20041;-89
2024/01/31 07:06:41;;;;;;;3.45;1.70;;;;;;;;;;6288152;22;20019;-89
2024/01/31 07:09:09;;;;;;;2.95;1.50;;;;;;;;;;6253481;22;20015;-88
2024/01/31 07:11:36;;;;;;;4.32;1.33;;;;;;;;;;6274189;22;20327;-88
2024/01/31 07:14:04;;;;;;;1.95;1.23;;;;;;;;;;6250846;22;20061;-88
2024/01/31 07:16:31;;;;;;;2.17;1.20;;;;;;;;;;6247421;22;20024;-89
2024/01/31 07:18:57;;;;;;;4.60;1.40;;;;;;;;;;6249918;22;20023;-88
2024/01/31 07:21:33;;;;;;;2.33;1.38;;;;;;;;;;6298384;22;20025;-89
2024/01/31 07:24:00;;;;;;;5.57;1.58;;;;;;;;;;6277427;22;20023;-88
2024/01/31 07:26:28;;;;;;;4.18;1.70;;;;;;;;;;6302100;22;20058;-88
2024/01/31 07:28:55;;;;;;;4.57;1.30;;;;;;;;;;6252537;22;20068;-88
2024/01/31 07:31:23;;;;;;;3.90;1.60;;;;;;;;;;6249108;22;20007;-89
2024/01/31 07:33:53;;;;;;;16.85;2.20;;;;;;;;;;6252365;22;20105;-88
2024/01/31 07:36:24;;;;;;;5.43;1.95;;;;;;;;;;6277003;22;20019;-88
2024/01/31 07:38:52;;;;;;;4.32;1.92;;;;;;;;;;6254492;22;20050;-88
2024/01/31 07:41:21;;;;;;;2.78;1.73;;;;;;;;;;6253065;22;20744;-88
2024/01/31 07:43:48;;;;;;;5.45;1.60;;;;;;;;;;6250957;22;20045;-87
2024/01/31 07:46:16;;;;;;;4.95;2.00;;;;;;;;;;6266577;22;20458;-87
2024/01/31 07:48:44;;;;;;;3.03;1.70;;;;;;;;;;6267316;22;20015;-87
2024/01/31 08:30:54;;;;;;;5.45;2.88;;;;;;;;;;6282278;22;19996;-86
2024/01/31 08:33:20;;;;;;;6.82;2.90;;;;;;;;;;6263140;22;20702;-87
2024/01/31 08:35:49;;;;;;;4.95;3.05;;;;;;;;;;6270195;22;20074;-87
2024/01/31 08:38:15;;;;;;;5.90;3.03;;;;;;;;;;6238315;22;20095;-87
2024/01/31 08:40:41;;;;;;;4.05;3.13;;;;;;;;;;6243303;22;20017;-87
2024/01/31 08:43:07;;;;;;;3.90;2.85;;;;;;;;;;6241948;22;20019;-87
2024/01/31 08:45:34;;;;;;;5.00;3.30;;;;;;;;;;6240488;22;20791;-87
2024/01/31 08:48:00;;;;;;;6.55;3.10;;;;;;;;;;6241570;22;20120;-88
2024/01/31 08:50:26;;;;;;;6.43;3.63;;;;;;;;;;6241234;22;20038;-87
2024/01/31 08:52:53;;;;;;;4.95;3.95;;;;;;;;;;6241046;22;20042;-87
2024/01/31 08:55:19;;;;;;;7.78;3.85;;;;;;;;;;6266670;22;20430;-87
2024/01/31 08:57:45;;;;;;;6.93;3.40;;;;;;;;;;6243598;22;20038;-87
2024/01/31 09:00:12;;;;;;;5.30;3.70;;;;;;;;;;6268499;22;20022;-87
2024/01/31 09:02:38;;;;;;;6.65;3.80;;;;;;;;;;6240716;22;20015;-87
2024/01/31 09:05:04;;;;;;;6.30;3.75;;;;;;;;;;6268695;22;20073;-87
2024/01/31 09:07:30;;;;;;;4.53;3.60;;;;;;;;;;6266230;22;20470;-87
2024/01/31 09:09:56;;;;;;;7.00;4.90;;;;;;;;;;6242296;22;20026;-88
2024/01/31 09:12:22;;;;;;;11.25;4.60;;;;;;;;;;6288438;22;20053;-87
2024/01/31 09:14:49;;;;;;;10.82;4.82;;;;;;;;;;6265114;22;20335;-87
2024/01/31 09:17:15;;;;;;;7.75;4.47;;;;;;;;;;6239589;22;20019;-88
2024/01/31 09:19:41;;;;;;;7.63;4.35;;;;;;;;;;6270066;22;20019;-87
2024/01/31 09:22:07;;;;;;;6.80;3.38;;;;;;;;;;6270248;22;20015;-87
2024/01/31 09:24:36;;;;;;;9.48;4.15;;;;;;;;;;6292324;22;20022;-86
2024/01/31 09:27:02;;;;;;;5.10;3.78;;;;;;;;;;6270860;22;20081;-87
2024/01/31 09:29:28;;;;;;;4.18;3.25;;;;;;;;;;6242121;22;20077;-88
2024/01/31 09:31:54;;;;;;;9.25;5.57;;;;;;;;;;6296339;22;20110;-88
2024/01/31 09:34:20;;;;;;;5.28;4.38;;;;;;;;;;6267809;22;20022;-88
2024/01/31 09:36:46;;;;;;;7.13;3.50;;;;;;;;;;6271078;22;20015;-87
2024/01/31 09:39:12;;;;;;;6.75;3.58;;;;;;;;;;6294022;22;20117;-87
2024/01/31 09:41:38;;;;;;;4.13;3.42;;;;;;;;;;6218788;22;20072;-87
2024/01/31 09:44:04;;;;;;;5.72;4.07;;;;;;;;;;6297336;22;20197;-87
2024/01/31 09:46:32;;;;;;;5.43;3.33;;;;;;;;;;6268803;22;20098;-87
2024/01/31 09:48:58;;;;;;;5.57;3.38;;;;;;;;;;6270246;22;20011;-88
2024/01/31 09:51:24;;;;;;;4.55;3.70;;;;;;;;;;6243228;22;20442;-87
2024/01/31 09:53:52;;;;;;;5.97;3.90;;;;;;;;;;6271192;22;20012;-87
2024/01/31 09:56:19;;;;;;;7.55;3.50;;;;;;;;;;6297066;22;20020;-86
2024/01/31 09:58:45;;;;;;;6.13;3.25;;;;;;;;;;6271796;22;20030;-87
2024/01/31 10:01:11;;;;;;;5.22;3.10;;;;;;;;;;6300594;22;20145;-87
2024/01/31 10:03:37;;;;;;;5.82;3.40;;;;;;;;;;6269673;22;20062;-87
2024/01/31 10:06:05;;;;;;;4.30;3.13;;;;;;;;;;6272835;22;20355;-88
2024/01/31 10:08:31;;;;;;;6.57;3.80;;;;;;;;;;6269441;22;20015;-88
2024/01/31 10:10:57;;;;;;;4.45;3.28;;;;;;;;;;6271790;22;20046;-88
2024/01/31 10:13:23;;;;;;;6.97;3.47;;;;;;;;;;6295277;22;20028;-87
2024/01/31 10:15:49;;;;;;;7.15;3.78;;;;;;;;;;6272250;22;20335;-87
2024/01/31 10:18:18;;;;;;;4.38;3.53;;;;;;;;;;6294694;22;20018;-87
2024/01/31 10:20:50;;;;;;;6.40;3.65;;;;;;;;;;6299212;22;20396;-87
2024/01/31 10:23:16;;;;;;;3.75;3.08;;;;;;;;;;6269199;22;20553;-88
2024/01/31 10:25:42;;;;;;;4.50;2.90;;;;;;;;;;6272548;22;20510;-87
2024/01/31 10:28:08;;;;;;;5.45;3.38;;;;;;;;;;6271267;22;20046;-87
2024/01/31 10:30:41;;;;;;;6.88;3.42;;;;;;;;;;6269763;22;20023;-87
2024/01/31 10:33:07;;;;;;;7.05;3.65;;;;;;;;;;6297494;22;20420;-87
2024/01/31 10:35:33;;;;;;;5.00;3.17;;;;;;;;;;6269808;22;20015;-87
2024/01/31 10:37:59;;;;;;;5.72;4.00;;;;;;;;;;6297227;22;20015;-87
2024/01/31 10:40:25;;;;;;;6.75;3.90;;;;;;;;;;6270707;22;20086;-87
2024/01/31 10:42:51;;;;;;;5.32;3.65;;;;;;;;;;6272321;22;20019;-87
2024/01/31 10:45:17;;;;;;;5.90;3.60;;;;;;;;;;6270327;22;20017;-87
2024/01/31 10:47:44;;;;;;;5.20;4.13;;;;;;;;;;6295540;22;20334;-87
2024/01/31 10:50:10;;;;;;;5.90;4.20;;;;;;;;;;6297490;22;20094;-87
2024/01/31 10:52:36;;;;;;;4.35;3.70;;;;;;;;;;6294705;22;20016;-88
2024/01/31 10:55:03;;;;;;;5.65;3.65;;;;;;;;;;6271048;22;20019;-87
2024/01/31 10:57:29;;;;;;;6.70;3.97;;;;;;;;;;6295189;22;20015;-87
2024/01/31 10:59:59;;;;;;;5.55;3.85;;;;;;;;;;6297805;22;20102;-87
2024/01/31 11:02:29;;;;;;;5.10;4.32;;;;;;;;;;6268858;22;20351;-87
2024/01/31 11:04:58;;;;;;;6.95;4.32;;;;;;;;;;6298477;22;20011;-87
2024/01/31 11:07:25;;;;;;;6.78;4.80;;;;;;;;;;6269336;22;20023;-87
2024/01/31 11:09:51;;;;;;;6.03;4.50;;;;;;;;;;6245241;22;20011;-87
2024/01/31 11:12:17;;;;;;;5.97;5.15;;;;;;;;;;6269099;22;20681;-88
2024/01/31 11:14:46;;;;;;;6.18;5.07;;;;;;;;;;6243818;22;20077;-87
2024/01/31 11:17:13;;;;;;;10.38;6.07;;;;;;;;;;6242622;22;20015;-88
2024/01/31 11:19:44;;;;;;;6.97;5.07;;;;;;;;;;6269260;22;20114;-89
2024/01/31 11:22:10;;;;;;;7.32;5.45;;;;;;;;;;6296982;22;20019;-88
2024/01/31 11:24:39;;;;;;;8.35;4.65;;;;;;;;;;6265477;22;20274;-86
2024/01/31 11:27:05;;;;;;;7.05;4.45;;;;;;;;;;6244694;22;20023;-89
2024/01/31 11:29:31;;;;;;;7.78;5.05;;;;;;;;;;6293282;22;20019;-88
2024/01/31 11:31:58;;;;;;;6.30;4.75;;;;;;;;;;6296474;22;20019;-88
2024/01/31 11:34:24;;;;;;;5.70;5.00;;;;;;;;;;6293199;22;20459;-87
2024/01/31 11:36:50;;;;;;;5.13;4.47;;;;;;;;;;6270499;22;20026;-88
2024/01/31 11:39:16;;;;;;;6.70;4.63;;;;;;;;;;6266626;22;20043;-87
2024/01/31 11:41:42;;;;;;;6.68;5.30;;;;;;;;;;6269632;22;20061;-88
2024/01/31 11:44:08;;;;;;;7.40;5.03;;;;;;;;;;6242157;22;20444;-87
2024/01/31 11:46:34;;;;;;;8.23;6.30;;;;;;;;;;6264939;22;20030;-88
2024/01/31 11:49:00;;;;;;;8.00;6.38;;;;;;;;;;6291886;22;20007;-89
2024/01/31 11:51:26;;;;;;;7.95;6.05;;;;;;;;;;6291439;22;20026;-86
2024/01/31 11:53:52;;;;;;;8.35;7.03;;;;;;;;;;6294536;22;20403;-87
2024/01/31 11:56:19;;;;;;;8.88;6.25;;;;;;;;;;6290393;22;20049;-87
2024/01/31 11:58:44;;;;;;;8.70;6.15;;;;;;;;;;6293094;22;20094;-87
2024/01/31 12:01:10;;;;;;;7.45;5.85;;;;;;;;;;6293283;22;20464;-87
2024/01/31 12:03:37;;;;;;;9.57;5.90;;;;;;;;;;6266334;22;20046;-87
2024/01/31 12:06:04;;;;;;;9.48;6.28;;;;;;;;;;6267574;22;20082;-88
2024/01/31 12:08:33;;;;;;;6.70;5.60;;;;;;;;;;6291687;22;20339;-89
2024/01/31 12:10:59;;;;;;;7.63;6.65;;;;;;;;;;6267960;22;20447;-87
2024/01/31 12:13:26;;;;;;;8.00;5.50;;;;;;;;;;6289107;22;20019;-87
2024/01/31 12:15:52;;;;;;;8.73;5.78;;;;;;;;;;6268952;22;20011;-88
2024/01/31 12:18:18;;;;;;;7.03;5.30;;;;;;;;;;6291645;22;20042;-88
2024/01/31 12:20:44;;;;;;;6.53;5.15;;;;;;;;;;6270178;22;20148;-87
2024/01/31 12:23:10;;;;;;;6.38;5.10;;;;;;;;;;6293052;22;20394;-87
2024/01/31 12:25:36;;;;;;;6.82;5.20;;;;;;;;;;6292175;22;20022;-88
2024/01/31 12:28:03;;;;;;;7.40;5.03;;;;;;;;;;6268310;22;20465;-87
2024/01/31 12:30:29;;;;;;;7.10;5.47;;;;;;;;;;6266609;22;20011;-88
2024/01/31 12:32:55;;;;;;;7.85;4.43;;;;;;;;;;6241411;22;20122;-88
2024/01/31 12:35:22;;;;;;;7.82;5.53;;;;;;;;;;6265057;22;20343;-87
2024/01/31 12:37:48;;;;;;;7.40;5.20;;;;;;;;;;6270691;22;20320;-88
2024/01/31 12:40:14;;;;;;;7.32;5.43;;;;;;;;;;6266930;22;20023;-88
2024/01/31 12:42:40;;;;;;;8.23;5.30;;;;;;;;;;6270052;22;20015;-87
2024/01/31 12:45:06;;;;;;;10.18;5.47;;;;;;;;;;6297215;22;20449;-88
2024/01/31 12:47:34;;;;;;;8.73;5.65;;;;;;;;;;6267865;22;20019;-87
2024/01/31 12:50:00;;;;;;;6.55;5.45;;;;;;;;;;6292355;22;20015;-88
2024/01/31 12:52:26;;;;;;;8.68;5.60;;;;;;;;;;6267615;22;20074;-87
2024/01/31 12:54:52;;;;;;;11.30;6.10;;;;;;;;;;6295490;22;20078;-87
2024/01/31 12:57:18;;;;;;;6.40;5.22;;;;;;;;;;6267657;22;20015;-88
2024/01/31 12:59:46;;;;;;;8.88;5.80;;;;;;;;;;6270815;22;20333;-88
2024/01/31 13:02:12;;;;;;;7.82;6.03;;;;;;;;;;6271094;22;20011;-87
2024/01/31 13:04:38;;;;;;;11.20;5.97;;;;;;;;;;6296765;22;20015;-87
2024/01/31 13:07:04;;;;;;;6.82;6.00;;;;;;;;;;6292976;22;20019;-87
2024/01/31 13:09:30;;;;;;;9.27;7.30;;;;;;;;;;6290384;22;20026;-87
2024/01/31 13:11:56;;;;;;;8.98;7.13;;;;;;;;;;6294099;22;20030;-86
2024/01/31 13:14:22;;;;;;;8.90;6.97;;;;;;;;;;6265801;22;20015;-87
2024/01/31 13:16:48;;;;;;;10.93;7.45;;;;;;;;;;6269743;22;20021;-88
2024/01/31 13:19:14;;;;;;;9.35;7.60;;;;;;;;;;6291834;22;20098;-88
2024/01/31 13:21:43;;;;;;;9.10;7.70;;;;;;;;;;6295487;22;20463;-88
2024/01/31 13:24:09;;;;;;;9.10;7.20;;;;;;;;;;6295256;22;20011;-88
2024/01/31 13:26:35;;;;;;;10.80;6.95;;;;;;;;;;6266892;22;20327;-88
2024/01/31 13:29:02;;;;;;;8.48;6.57;;;;;;;;;;6292693;22;20672;-87
2024/01/31 13:31:28;;;;;;;9.55;6.97;;;;;;;;;;6290989;22;20023;-88
2024/01/31 13:33:54;;;;;;;9.55;6.80;;;;;;;;;;6267110;22;20331;-89
2024/01/31 13:36:20;;;;;;;9.48;6.18;;;;;;;;;;6264920;22;20528;-88
2024/01/31 13:38:48;;;;;;;9.30;6.90;;;;;;;;;;6294744;22;20015;-88
2024/01/31 13:41:14;;;;;;;9.15;6.50;;;;;;;;;;6293108;22;20396;-88
2024/01/31 13:43:40;;;;;;;7.55;5.90;;;;;;;;;;6270922;22;20027;-87
2024/01/31 13:46:06;;;;;;;8.32;6.85;;;;;;;;;;6270360;22;20065;-88
2024/01/31 13:48:32;;;;;;;6.78;5.88;;;;;;;;;;6293418;22;20331;-87
2024/01/31 13:50:58;;;;;;;8.68;6.43;;;;;;;;;;6294156;22;20079;-89
2024/01/31 13:53:24;;;;;;;9.50;6.47;;;;;;;;;;6266380;22;20012;-88
2024/01/31 13:55:51;;;;;;;8.88;6.18;;;;;;;;;;6268669;22;20090;-88
2024/01/31 13:58:16;;;;;;;9.25;5.82;;;;;;;;;;6291925;22;20019;-88
2024/01/31 14:00:42;;;;;;;9.05;6.85;;;;;;;;;;6269399;22;20017;-89
2024/01/31 14:03:09;;;;;;;9.65;6.95;;;;;;;;;;6295598;22;20055;-89
2024/01/31 14:05:35;;;;;;;9.50;6.88;;;;;;;;;;6239218;22;20015;-90
2024/01/31 14:08:01;;;;;;;10.00;6.93;;;;;;;;;;6292389;22;20515;-90
2024/01/31 14:10:29;;;;;;;9.25;6.78;;;;;;;;;;6268206;22;20039;-89
2024/01/31 14:12:55;;;;;;;9.23;8.27;;;;;;;;;;6250108;22;20015;-89
2024/01/31 14:15:21;;;;;;;10.40;7.57;;;;;;;;;;6254641;22;20022;-89
2024/01/31 14:17:47;;;;;;;11.88;8.55;;;;;;;;;;6308388;22;20023;-89
2024/01/31 14:20:13;;;;;;;11.55;8.02;;;;;;;;;;6278836;22;20011;-89
2024/01/31 14:22:39;;;;;;;12.07;8.27;;;;;;;;;;6306838;22;20015;-90
2024/01/31 14:25:05;;;;;;;11.50;8.50;;;;;;;;;;6272939;22;20012;-89
2024/01/31 14:27:32;;;;;;;9.35;7.50;;;;;;;;;;6267168;22;20020;-90
2024/01/31 14:29:58;;;;;;;12.88;8.77;;;;;;;;;;6270136;22;20114;-89
2024/01/31 14:32:24;;;;;;;14.60;8.20;;;;;;;;;;6293426;22;20556;-89
2024/01/31 14:34:50;;;;;;;11.90;8.45;;;;;;;;;;6270102;22;20019;-89
2024/01/31 14:37:16;;;;;;;12.80;9.70;;;;;;;;;;6243226;22;20015;-90
2024/01/31 14:39:42;;;;;;;15.55;10.13;;;;;;;;;;6295754;22;20030;-90
2024/01/31 14:42:08;;;;;;;12.85;8.88;;;;;;;;;;6323209;22;20043;-90
2024/01/31 14:44:34;;;;;;;13.18;9.45;;;;;;;;;;6269628;22;20815;-90
2024/01/31 14:47:01;;;;;;;14.13;9.95;;;;;;;;;;6272215;22;20443;-90
2024/01/31 14:49:27;;;;;;;11.10;8.77;;;;;;;;;;6267741;22;20041;-88
2024/01/31 14:51:55;;;;;;;14.85;10.25;;;;;;;;;;6291981;22;20431;-89
2024/01/31 14:54:21;;;;;;;13.23;9.82;;;;;;;;;;6293964;22;20018;-90
2024/01/31 14:56:51;;;;;;;16.10;10.02;;;;;;;;;;6268390;22;20133;-89
2024/01/31 14:59:17;;;;;;;13.95;10.60;;;;;;;;;;6318612;22;20023;-89
2024/01/31 15:01:43;;;;;;;15.60;10.02;;;;;;;;;;6269178;22;20019;-90
2024/01/31 15:04:09;;;;;;;16.35;11.05;;;;;;;;;;6321831;22;20019;-90
2024/01/31 15:06:36;;;;;;;15.75;10.93;;;;;;;;;;6266721;22;20018;-90
2024/01/31 15:09:02;;;;;;;14.70;10.85;;;;;;;;;;6295868;22;20098;-89
2024/01/31 15:11:29;;;;;;;14.23;10.50;;;;;;;;;;6268192;22;20011;-89
2024/01/31 15:13:55;;;;;;;18.00;11.55;;;;;;;;;;6321060;22;20018;-90
2024/01/31 15:16:21;;;;;;;15.93;11.10;;;;;;;;;;6241900;22;20019;-90
2024/01/31 15:18:47;;;;;;;16.27;12.32;;;;;;;;;;6321251;22;20015;-87
2024/01/31 15:21:19;;;;;;;15.02;11.63;;;;;;;;;;6241747;22;20034;-89